Time;durP1;ratioP1;P1;durP2;ratioP2;P2;SDS_P1;SDS_P2;PMS_P1;PMS_P2;Temp;Humidity;BMP_temperature;BMP_pressure;BME280_temperature;BME280_humidity;BME280_pressure;Samples;Min_cycle;Max_cycle;Signal;HPM_P1;HPM_P2
2021/05/14 00:01:24;;;;;;;;;;;19.70;63.40;;;;;;5052287;28;1447;-72
2021/05/14 00:03:49;;;;;;;;;;;19.70;63.40;;;;;;5079642;22;2767;-65
2021/05/14 00:06:15;;;;;;;;;;;19.70;63.40;;;;;;5072887;28;1054;-64
2021/05/14 00:08:41;;;;;;;;;;;19.70;63.40;;;;;;5086668;28;1252;-65
2021/05/14 00:11:06;;;;;;;;;;;19.60;63.40;;;;;;5090408;28;1503;-66
2021/05/14 00:13:31;;;;;;;;;;;19.60;63.40;;;;;;5082215;28;1980;-64
2021/05/14 00:15:57;;;;;;;;;;;19.70;63.50;;;;;;5064975;28;1698;-65
2021/05/14 00:18:23;;;;;;;;;;;19.60;63.40;;;;;;5071627;28;1664;-65
2021/05/14 00:20:48;;;;;;;;;;;19.60;63.40;;;;;;5056521;28;1502;-65
2021/05/14 00:23:14;;;;;;;;;;;19.60;63.40;;;;;;5051698;28;1392;-64
2021/05/14 00:25:39;;;;;;;;;;;19.60;63.50;;;;;;5051376;28;1354;-64
2021/05/14 00:28:05;;;;;;;;;;;19.60;63.40;;;;;;5051464;28;1147;-65
2021/05/14 00:30:30;;;;;;;;;;;19.60;63.50;;;;;;5052230;28;1359;-64
2021/05/14 00:32:56;;;;;;;;;;;19.60;63.50;;;;;;5057504;28;1967;-65
2021/05/14 00:35:21;;;;;;;;;;;19.60;63.50;;;;;;5049187;28;1684;-65
2021/05/14 00:37:46;;;;;;;;;;;19.60;63.50;;;;;;5051624;28;1621;-64
2021/05/14 00:40:12;;;;;;;;;;;19.60;63.50;;;;;;5051604;28;1630;-65
2021/05/14 00:42:37;;;;;;;;;;;19.60;63.50;;;;;;5050114;28;1424;-65
2021/05/14 00:45:04;;;;;;;;;;;19.60;63.60;;;;;;5051250;28;1333;-65
2021/05/14 00:47:29;;;;;;;;;;;19.60;63.60;;;;;;5051448;28;1365;-65
2021/05/14 00:49:55;;;;;;;;;;;19.60;63.60;;;;;;5051489;28;1652;-65
2021/05/14 00:52:20;;;;;;;;;;;19.60;63.60;;;;;;5050246;28;1902;-65
2021/05/14 00:54:46;;;;;;;;;;;19.60;63.60;;;;;;5050176;28;1425;-65
2021/05/14 00:57:13;;;;;;;;;;;19.60;63.70;;;;;;5050974;28;1252;-65
2021/05/14 00:59:38;;;;;;;;;;;19.60;63.60;;;;;;5051398;28;1583;-64
2021/05/14 01:02:04;;;;;;;;;;;19.60;63.60;;;;;;5057438;28;1692;-65
2021/05/14 01:04:29;;;;;;;;;;;19.60;63.60;;;;;;5050590;28;1699;-65
2021/05/14 01:06:55;;;;;;;;;;;19.60;63.70;;;;;;5066338;28;1161;-65
2021/05/14 01:09:20;;;;;;;;;;;19.60;63.70;;;;;;5076099;28;1541;-67
2021/05/14 01:11:46;;;;;;;;;;;19.60;63.70;;;;;;5075777;28;1898;-65
2021/05/14 01:14:11;;;;;;;;;;;19.60;63.70;;;;;;5070557;28;1666;-65
2021/05/14 01:16:37;;;;;;;;;;;19.60;63.70;;;;;;5055827;28;1366;-65
2021/05/14 01:19:03;;;;;;;;;;;19.60;63.70;;;;;;5054701;28;1444;-66
2021/05/14 01:21:32;;;;;;;;;;;19.50;63.70;;;;;;5059727;28;1393;-65
2021/05/14 01:23:57;;;;;;;;;;;19.60;63.70;;;;;;5054589;28;1575;-65
2021/05/14 01:26:24;;;;;;;;;;;19.60;63.70;;;;;;5056768;28;1383;-65
2021/05/14 01:28:50;;;;;;;;;;;19.60;63.70;;;;;;5055783;28;1349;-65
2021/05/14 01:31:15;;;;;;;;;;;19.60;63.70;;;;;;5062609;28;1366;-66
2021/05/14 01:33:41;;;;;;;;;;;19.60;63.70;;;;;;5056683;28;1902;-65
2021/05/14 01:36:07;;;;;;;;;;;19.60;63.70;;;;;;5058946;28;1272;-65
2021/05/14 01:38:32;;;;;;;;;;;19.60;63.80;;;;;;5077895;28;1194;-65
2021/05/14 01:40:57;;;;;;;;;;;19.60;63.80;;;;;;5079118;28;1112;-65
2021/05/14 01:43:23;;;;;;;;;;;19.60;63.80;;;;;;5079265;28;1282;-65
2021/05/14 01:45:48;;;;;;;;;;;19.60;63.80;;;;;;5083093;28;1126;-65
2021/05/14 01:48:14;;;;;;;;;;;19.60;63.80;;;;;;5074009;28;1189;-64
2021/05/14 01:50:40;;;;;;;;;;;19.60;63.80;;;;;;5053714;28;1350;-65
2021/05/14 01:53:05;;;;;;;;;;;19.60;63.80;;;;;;5053594;28;1965;-65
2021/05/14 01:55:30;;;;;;;;;;;19.50;63.80;;;;;;5052804;28;1405;-65
2021/05/14 01:57:56;;;;;;;;;;;19.50;63.80;;;;;;5054220;28;1559;-64
2021/05/14 02:00:21;;;;;;;;;;;19.60;64.60;;;;;;5076455;28;1385;-65
2021/05/14 02:02:47;;;;;;;;;;;19.60;63.90;;;;;;5081311;28;1502;-65
2021/05/14 02:05:12;;;;;;;;;;;19.60;63.90;;;;;;5079807;28;1384;-65
2021/05/14 02:07:38;;;;;;;;;;;19.60;63.90;;;;;;5079894;28;1198;-65
2021/05/14 02:10:04;;;;;;;;;;;19.60;63.80;;;;;;5081985;28;1608;-66
2021/05/14 02:12:29;;;;;;;;;;;19.50;63.80;;;;;;5079851;28;1909;-67
2021/05/14 02:14:54;;;;;;;;;;;19.60;63.90;;;;;;5083030;28;1307;-66
2021/05/14 02:17:20;;;;;;;;;;;19.50;63.80;;;;;;5081355;28;1227;-64
2021/05/14 02:19:45;;;;;;;;;;;19.50;63.80;;;;;;5081056;28;1218;-66
2021/05/14 02:22:11;;;;;;;;;;;19.50;63.80;;;;;;5080385;28;1194;-66
2021/05/14 02:24:36;;;;;;;;;;;19.50;63.80;;;;;;5083926;28;1348;-65
2021/05/14 02:27:03;;;;;;;;;;;19.50;63.80;;;;;;5082962;28;1309;-66
2021/05/14 02:29:29;;;;;;;;;;;19.50;63.90;;;;;;5080664;28;1278;-65
2021/05/14 02:31:54;;;;;;;;;;;19.50;63.80;;;;;;5078463;28;1894;-65
2021/05/14 02:34:19;;;;;;;;;;;19.50;63.90;;;;;;5082856;28;1317;-67
2021/05/14 02:36:45;;;;;;;;;;;19.50;63.80;;;;;;5084408;28;1093;-66
2021/05/14 02:39:10;;;;;;;;;;;19.50;63.90;;;;;;5082667;28;1210;-65
2021/05/14 02:41:37;;;;;;;;;;;19.50;63.90;;;;;;5080521;28;1242;-66
2021/05/14 02:44:03;;;;;;;;;;;19.50;63.90;;;;;;5070059;28;1711;-66
2021/05/14 02:46:29;;;;;;;;;;;19.50;64.00;;;;;;5056337;28;1265;-65
2021/05/14 02:48:54;;;;;;;;;;;19.50;63.90;;;;;;5053085;28;1154;-66
2021/05/14 02:51:19;;;;;;;;;;;19.50;64.00;;;;;;5052660;28;1157;-65
2021/05/14 02:53:45;;;;;;;;;;;19.50;64.00;;;;;;5053723;28;1897;-66
2021/05/14 02:56:10;;;;;;;;;;;19.50;64.00;;;;;;5053643;28;1134;-67
2021/05/14 02:58:36;;;;;;;;;;;19.50;64.00;;;;;;5054074;28;1054;-65
2021/05/14 03:01:01;;;;;;;;;;;19.50;64.00;;;;;;5054130;28;1201;-65
2021/05/14 03:03:27;;;;;;;;;;;19.50;64.00;;;;;;5053569;28;1274;-67
2021/05/14 03:05:52;;;;;;;;;;;19.50;64.00;;;;;;5053424;28;1359;-65
2021/05/14 03:08:17;;;;;;;;;;;19.50;64.00;;;;;;5052400;28;1190;-66
2021/05/14 03:10:43;;;;;;;;;;;19.50;64.00;;;;;;5052444;28;1135;-66
2021/05/14 03:13:08;;;;;;;;;;;19.50;64.00;;;;;;5053503;28;1967;-65
2021/05/14 03:15:34;;;;;;;;;;;19.50;64.00;;;;;;5052112;28;1309;-65
2021/05/14 03:17:59;;;;;;;;;;;19.50;64.00;;;;;;5052574;28;1099;-66
2021/05/14 03:20:24;;;;;;;;;;;19.50;64.10;;;;;;5058491;28;1042;-65
2021/05/14 03:22:50;;;;;;;;;;;19.50;64.10;;;;;;5053529;28;1083;-65
2021/05/14 03:25:15;;;;;;;;;;;19.50;64.00;;;;;;5052929;28;1233;-66
2021/05/14 03:27:41;;;;;;;;;;;19.50;64.00;;;;;;5053093;28;1130;-66
2021/05/14 03:30:07;;;;;;;;;;;19.50;64.00;;;;;;5053899;28;1113;-65
2021/05/14 03:32:32;;;;;;;;;;;19.50;64.10;;;;;;5059916;28;1906;-65
2021/05/14 03:34:57;;;;;;;;;;;19.50;64.00;;;;;;5053160;28;1278;-64
2021/05/14 03:37:23;;;;;;;;;;;19.50;64.00;;;;;;5052945;28;1083;-65
2021/05/14 03:39:53;;;;;;;;;;;19.50;64.00;;;;;;5053087;28;1165;-65
2021/05/14 03:42:23;;;;;;;;;;;19.50;64.00;;;;;;5053412;28;1027;-66
2021/05/14 03:44:48;;;;;;;;;;;19.50;64.00;;;;;;5051895;28;1316;-66
2021/05/14 03:47:14;;;;;;;;;;;19.50;63.90;;;;;;5052839;28;1078;-65
2021/05/14 03:49:39;;;;;;;;;;;19.50;63.90;;;;;;5051833;28;1107;-65
2021/05/14 03:52:09;;;;;;;;;;;19.50;63.80;;;;;;5052860;28;1909;-65
2021/05/14 03:54:34;;;;;;;;;;;19.50;63.80;;;;;;5051726;28;1266;-65
2021/05/14 03:57:00;;;;;;;;;;;19.50;63.70;;;;;;5052681;28;1114;-65
2021/05/14 03:59:25;;;;;;;;;;;19.60;63.80;;;;;;5052924;28;1055;-65
2021/05/14 04:01:51;;;;;;;;;;;19.60;63.70;;;;;;5052877;28;1122;-65
2021/05/14 04:04:17;;;;;;;;;;;19.60;63.70;;;;;;5052612;28;1295;-65
2021/05/14 04:06:42;;;;;;;;;;;19.60;63.60;;;;;;5051037;28;1681;-65
2021/05/14 04:09:08;;;;;;;;;;;19.60;63.60;;;;;;5052704;28;1107;-65
2021/05/14 04:16:42;;;;;;;;;;;19.60;63.50;;;;;;5065416;28;1133;-65
2021/05/14 04:19:08;;;;;;;;;;;19.60;63.50;;;;;;5072753;28;1224;-65
2021/05/14 04:21:33;;;;;;;;;;;19.60;63.40;;;;;;5058894;28;1302;-67
2021/05/14 04:23:59;;;;;;;;;;;19.60;63.40;;;;;;5052555;28;1263;-65
2021/05/14 04:26:24;;;;;;;;;;;19.60;63.40;;;;;;5052273;28;1098;-65
2021/05/14 04:28:50;;;;;;;;;;;19.60;64.10;;;;;;5052474;28;1185;-66
2021/05/14 04:31:15;;;;;;;;;;;19.70;63.40;;;;;;5059403;28;1086;-65
2021/05/14 04:33:40;;;;;;;;;;;19.60;63.30;;;;;;5053986;28;1890;-66
2021/05/14 04:36:06;;;;;;;;;;;19.70;63.40;;;;;;5052239;28;1205;-66
2021/05/14 04:38:31;;;;;;;;;;;19.70;63.40;;;;;;5052556;28;1102;-65
2021/05/14 04:40:57;;;;;;;;;;;19.70;63.40;;;;;;5053478;28;1162;-65
2021/05/14 04:43:22;;;;;;;;;;;19.70;63.40;;;;;;5056480;28;1292;-66
2021/05/14 04:45:48;;;;;;;;;;;19.70;63.40;;;;;;5056280;28;1134;-66
2021/05/14 04:48:13;;;;;;;;;;;19.60;63.30;;;;;;5055196;28;1115;-65
2021/05/14 04:50:39;;;;;;;;;;;19.60;63.30;;;;;;5056265;28;1062;-66
2021/05/14 04:53:05;;;;;;;;;;;19.70;63.30;;;;;;5056354;28;1973;-65
2021/05/14 04:55:30;;;;;;;;;;;19.60;63.20;;;;;;5054806;28;1142;-65
2021/05/14 04:57:56;;;;;;;;;;;19.70;63.30;;;;;;5056314;28;1122;-65
2021/05/14 05:00:23;;;;;;;;;;;19.70;63.30;;;;;;5055131;28;1079;-66
2021/05/14 05:02:49;;;;;;;;;;;19.60;63.20;;;;;;5056199;28;1071;-65
2021/05/14 05:05:14;;;;;;;;;;;19.70;63.30;;;;;;5055602;28;1197;-65
2021/05/14 05:07:40;;;;;;;;;;;19.70;63.30;;;;;;5054785;28;1154;-66
2021/05/14 05:10:05;;;;;;;;;;;19.70;63.30;;;;;;5054818;28;1059;-65
2021/05/14 05:12:31;;;;;;;;;;;19.70;63.30;;;;;;5056036;28;1910;-65
2021/05/14 05:14:56;;;;;;;;;;;19.70;63.30;;;;;;5055929;28;1188;-66
2021/05/14 05:17:21;;;;;;;;;;;19.70;64.10;;;;;;5073520;28;1114;-66
2021/05/14 05:19:47;;;;;;;;;;;19.70;63.30;;;;;;5075688;28;1070;-65
2021/05/14 05:22:12;;;;;;;;;;;19.70;63.30;;;;;;5058124;28;1019;-65
2021/05/14 05:24:38;;;;;;;;;;;19.70;63.30;;;;;;5055890;28;1270;-66
2021/05/14 05:27:03;;;;;;;;;;;19.70;63.30;;;;;;5055397;28;1055;-65
2021/05/14 05:29:29;;;;;;;;;;;19.70;63.30;;;;;;5054493;28;1075;-66
2021/05/14 05:31:54;;;;;;;;;;;19.70;63.20;;;;;;5063734;28;1967;-66
2021/05/14 05:34:20;;;;;;;;;;;19.70;63.30;;;;;;5055374;28;1255;-65
2021/05/14 05:36:45;;;;;;;;;;;19.70;63.30;;;;;;5055282;28;1074;-66
2021/05/14 05:39:11;;;;;;;;;;;19.70;63.20;;;;;;5055562;28;1126;-66
2021/05/14 05:41:36;;;;;;;;;;;19.70;63.20;;;;;;5055453;28;1141;-66
2021/05/14 05:44:02;;;;;;;;;;;19.70;63.30;;;;;;5055462;28;1278;-65
2021/05/14 05:46:27;;;;;;;;;;;19.70;63.30;;;;;;5054909;28;1145;-65
2021/05/14 05:48:52;;;;;;;;;;;19.70;63.20;;;;;;5055204;28;1137;-65
2021/05/14 05:51:18;;;;;;;;;;;19.70;63.20;;;;;;5055062;28;1114;-66
2021/05/14 05:53:43;;;;;;;;;;;19.70;63.30;;;;;;5055146;28;1961;-66
2021/05/14 05:56:09;;;;;;;;;;;19.70;63.30;;;;;;5054933;28;1082;-65
2021/05/14 05:58:35;;;;;;;;;;;19.70;63.20;;;;;;5055221;28;1118;-65
2021/05/14 06:01:00;;;;;;;;;;;19.70;63.20;;;;;;5055045;28;1090;-65
2021/05/14 06:03:26;;;;;;;;;;;19.70;63.20;;;;;;5054721;28;1421;-66
2021/05/14 06:05:51;;;;;;;;;;;19.70;63.20;;;;;;5101316;22;2164;-71
2021/05/14 06:08:17;;;;;;;;;;;19.70;63.20;;;;;;5068354;28;1481;-72
2021/05/14 06:10:42;;;;;;;;;;;19.70;63.20;;;;;;5094906;28;1346;-72
2021/05/14 06:13:08;;;;;;;;;;;19.70;63.20;;;;;;5094987;28;1973;-72
2021/05/14 06:15:33;;;;;;;;;;;19.70;63.30;;;;;;5075696;28;1585;-72
2021/05/14 06:17:59;;;;;;;;;;;19.70;63.30;;;;;;5074371;28;1449;-71
2021/05/14 06:20:26;;;;;;;;;;;19.70;63.20;;;;;;5068799;28;1196;-70
2021/05/14 06:22:52;;;;;;;;;;;19.70;63.30;;;;;;5074377;28;1672;-70
2021/05/14 06:25:18;;;;;;;;;;;19.70;63.30;;;;;;5073326;28;1520;-71
2021/05/14 06:27:44;;;;;;;;;;;19.70;63.30;;;;;;5072994;28;1423;-71
2021/05/14 06:30:09;;;;;;;;;;;19.70;63.30;;;;;;5073129;28;1888;-71
2021/05/14 06:32:35;;;;;;;;;;;19.70;63.30;;;;;;5054036;28;1975;-75
2021/05/14 06:35:00;;;;;;;;;;;19.70;63.40;;;;;;5059491;28;1560;-74
2021/05/14 06:37:26;;;;;;;;;;;19.60;63.30;;;;;;5060356;28;1530;-73
2021/05/14 06:39:51;;;;;;;;;;;19.70;63.40;;;;;;5065468;28;1398;-67
2021/05/14 06:42:17;;;;;;;;;;;19.70;63.40;;;;;;5062646;28;1656;-68
2021/05/14 06:44:42;;;;;;;;;;;19.70;64.10;;;;;;5073178;28;1370;-69
2021/05/14 06:47:07;;;;;;;;;;;19.70;63.40;;;;;;5087525;28;1184;-68
2021/05/14 06:49:33;;;;;;;;;;;19.70;63.40;;;;;;5072935;28;1380;-68
2021/05/14 06:51:58;;;;;;;;;;;19.70;63.40;;;;;;5088300;28;1898;-68
2021/05/14 06:54:24;;;;;;;;;;;19.70;63.30;;;;;;5072416;28;1607;-70
2021/05/14 06:56:50;;;;;;;;;;;19.70;63.40;;;;;;5072930;28;1680;-70
2021/05/14 06:59:16;;;;;;;;;;;19.70;63.40;;;;;;5073398;28;1351;-70
2021/05/14 07:01:42;;;;;;;;;;;19.70;63.40;;;;;;5073264;28;1125;-70
2021/05/14 07:04:08;;;;;;;;;;;19.70;63.30;;;;;;5072806;28;1337;-70
2021/05/14 07:06:33;;;;;;;;;;;19.70;63.40;;;;;;5072656;28;1250;-70
2021/05/14 07:08:58;;;;;;;;;;;19.60;63.40;;;;;;5073275;28;1643;-71
2021/05/14 07:11:24;;;;;;;;;;;19.60;63.40;;;;;;5072111;28;1667;-70
2021/05/14 07:13:49;;;;;;;;;;;19.70;63.40;;;;;;5073341;28;1952;-70
2021/05/14 07:16:15;;;;;;;;;;;19.70;63.40;;;;;;5072711;28;1675;-70
2021/05/14 07:18:40;;;;;;;;;;;19.70;63.40;;;;;;5072533;28;1220;-70
2021/05/14 07:21:06;;;;;;;;;;;19.70;63.40;;;;;;5068422;28;1487;-71
2021/05/14 07:23:32;;;;;;;;;;;19.70;63.40;;;;;;5073056;28;1463;-70
2021/05/14 07:25:58;;;;;;;;;;;19.70;63.40;;;;;;5072574;28;1387;-70
2021/05/14 07:28:23;;;;;;;;;;;19.70;63.40;;;;;;5073408;28;1364;-72
2021/05/14 07:30:49;;;;;;;;;;;19.70;63.40;;;;;;5069750;28;1622;-72
2021/05/14 07:33:14;;;;;;;;;;;19.60;63.40;;;;;;5068013;28;1894;-72
2021/05/14 07:35:40;;;;;;;;;;;19.70;63.40;;;;;;5072371;28;1182;-72
2021/05/14 07:38:05;;;;;;;;;;;19.70;63.40;;;;;;5058138;28;1334;-72
2021/05/14 07:40:30;;;;;;;;;;;19.60;63.40;;;;;;5088975;28;1689;-72
2021/05/14 07:42:56;;;;;;;;;;;19.70;63.40;;;;;;5072269;28;1404;-72
2021/05/14 07:45:21;;;;;;;;;;;19.70;63.40;;;;;;5072622;28;1404;-72
2021/05/14 07:47:47;;;;;;;;;;;19.70;63.50;;;;;;5088816;28;1703;-71
2021/05/14 07:50:13;;;;;;;;;;;19.70;63.40;;;;;;5088052;28;1690;-71
2021/05/14 07:52:39;;;;;;;;;;;19.70;63.40;;;;;;5072562;28;1963;-72
2021/05/14 07:55:05;;;;;;;;;;;19.70;63.50;;;;;;5072962;28;1306;-71
2021/05/14 07:57:30;;;;;;;;;;;19.60;63.40;;;;;;5070969;28;1360;-71
2021/05/14 07:59:56;;;;;;;;;;;19.70;63.40;;;;;;5072708;28;1378;-71
2021/05/14 08:02:21;;;;;;;;;;;19.60;63.40;;;;;;5071541;28;1426;-71
2021/05/14 08:04:47;;;;;;;;;;;19.70;63.40;;;;;;5072707;28;1341;-71
2021/05/14 08:07:12;;;;;;;;;;;19.70;63.40;;;;;;5070517;28;1471;-72
2021/05/14 08:09:37;;;;;;;;;;;19.70;63.40;;;;;;5071644;28;1087;-73
2021/05/14 08:12:05;;;;;;;;;;;19.60;63.40;;;;;;5071349;28;1897;-73
2021/05/14 08:14:31;;;;;;;;;;;19.70;63.50;;;;;;5087978;28;1522;-73
2021/05/14 08:16:56;;;;;;;;;;;19.70;63.40;;;;;;5070677;28;1701;-73
2021/05/14 08:19:22;;;;;;;;;;;19.70;63.40;;;;;;5072499;28;1671;-72
2021/05/14 08:21:47;;;;;;;;;;;19.70;63.40;;;;;;5067552;28;1450;-72
2021/05/14 08:24:13;;;;;;;;;;;19.70;63.40;;;;;;5071289;28;1688;-72
2021/05/14 08:26:38;;;;;;;;;;;19.60;63.40;;;;;;5071703;28;1548;-71
2021/05/14 08:29:04;;;;;;;;;;;19.70;63.40;;;;;;5072404;28;1172;-71
2021/05/14 08:31:33;;;;;;;;;;;19.70;63.40;;;;;;5064241;28;1684;-71
2021/05/14 08:33:58;;;;;;;;;;;19.70;63.40;;;;;;5072519;28;1961;-71
2021/05/14 08:36:24;;;;;;;;;;;19.60;63.40;;;;;;5069716;28;1415;-71
2021/05/14 08:38:49;;;;;;;;;;;19.60;63.40;;;;;;5072355;28;1256;-71
2021/05/14 08:41:15;;;;;;;;;;;19.70;63.40;;;;;;5072249;28;1444;-71
2021/05/14 08:43:40;;;;;;;;;;;19.70;63.40;;;;;;5072400;28;1420;-72
2021/05/14 08:46:06;;;;;;;;;;;19.70;63.50;;;;;;5086490;28;1665;-71
2021/05/14 08:48:32;;;;;;;;;;;19.70;63.40;;;;;;5071354;28;1456;-71
2021/05/14 08:50:57;;;;;;;;;;;19.70;63.50;;;;;;5072194;28;1465;-72
2021/05/14 08:53:23;;;;;;;;;;;19.70;63.40;;;;;;5071054;28;1898;-72
2021/05/14 08:55:48;;;;;;;;;;;19.60;63.40;;;;;;5071234;28;1434;-72
2021/05/14 08:58:14;;;;;;;;;;;19.70;63.50;;;;;;5071913;28;1361;-72
2021/05/14 09:00:40;;;;;;;;;;;19.70;63.40;;;;;;5087946;28;1458;-72
2021/05/14 09:03:08;;;;;;;;;;;19.70;63.40;;;;;;5072112;28;1371;-72
2021/05/14 09:05:34;;;;;;;;;;;19.70;63.40;;;;;;5069804;28;1405;-72
2021/05/14 09:08:00;;;;;;;;;;;19.70;63.40;;;;;;5071912;28;1423;-72
2021/05/14 09:10:26;;;;;;;;;;;19.70;63.40;;;;;;5070201;28;1422;-72
2021/05/14 09:12:52;;;;;;;;;;;19.70;63.40;;;;;;5070629;28;1926;-72
2021/05/14 09:15:21;;;;;;;;;;;19.70;63.40;;;;;;5069817;28;1360;-72
2021/05/14 09:18:05;;;;;;;;;;;19.70;63.40;;;;;;5070438;28;1079;-72
2021/05/14 09:20:31;;;;;;;;;;;19.70;64.10;;;;;;5064750;28;1407;-72
2021/05/14 09:22:56;;;;;;;;;;;19.70;63.40;;;;;;5071988;28;1070;-72
2021/05/14 09:25:22;;;;;;;;;;;19.70;63.40;;;;;;5070569;28;1669;-73
2021/05/14 09:27:47;;;;;;;;;;;19.70;63.40;;;;;;5073355;28;1282;-71
2021/05/14 09:30:13;;;;;;;;;;;19.70;63.40;;;;;;5074848;28;1409;-72
2021/05/14 09:32:38;;;;;;;;;;;19.70;63.40;;;;;;5066465;28;1969;-72
2021/05/14 09:35:05;;;;;;;;;;;19.70;63.40;;;;;;5074727;28;1300;-72
2021/05/14 09:37:30;;;;;;;;;;;19.70;63.40;;;;;;5073840;28;1411;-72
2021/05/14 09:40:18;;;;;;;;;;;19.70;63.40;;;;;;5056361;28;1690;-72
2021/05/14 09:42:44;;;;;;;;;;;19.70;63.40;;;;;;5073463;28;1468;-72
2021/05/14 09:45:13;;;;;;;;;;;19.70;63.40;;;;;;5074109;28;1408;-73
2021/05/14 09:47:38;;;;;;;;;;;19.70;63.40;;;;;;5073278;28;1110;-73
2021/05/14 09:50:22;;;;;;;;;;;19.70;63.30;;;;;;5073985;28;1748;-72
2021/05/14 09:53:20;;;;;;;;;;;19.70;63.30;;;;;;5074393;28;1902;-70
2021/05/14 09:56:13;;;;;;;;;;;19.70;63.30;;;;;;5030398;28;1710;-74
2021/05/14 09:58:35;;;;;;;;;;;19.70;63.40;;;;;;5061363;28;1681;-74
2021/05/14 10:01:00;;;;;;;;;;;19.70;63.30;;;;;;5074081;28;1109;-74
2021/05/14 10:03:29;;;;;;;;;;;19.70;63.30;;;;;;5074402;28;1651;-74
2021/05/14 10:05:55;;;;;;;;;;;19.70;63.30;;;;;;5088599;28;1456;-74
2021/05/14 10:08:21;;;;;;;;;;;19.70;63.30;;;;;;5060584;28;1243;-74
2021/05/14 10:10:47;;;;;;;;;;;19.70;63.20;;;;;;5069739;28;1275;-74
2021/05/14 10:13:12;;;;;;;;;;;19.70;63.30;;;;;;5067644;28;1906;-73
2021/05/14 10:15:38;;;;;;;;;;;19.70;63.20;;;;;;5074166;28;1552;-73
2021/05/14 10:18:06;;;;;;;;;;;19.70;63.20;;;;;;5056420;28;1146;-73
2021/05/14 10:20:31;;;;;;;;;;;19.70;63.20;;;;;;5047801;28;1159;-73
2021/05/14 10:22:57;;;;;;;;;;;19.70;63.20;;;;;;5074084;28;1467;-70
2021/05/14 10:25:39;;;;;;;;;;;19.70;63.20;;;;;;5068090;28;1273;-71
2021/05/14 10:28:05;;;;;;;;;;;19.70;63.20;;;;;;5072887;28;1074;-72
2021/05/14 10:30:30;;;;;;;;;;;19.70;63.20;;;;;;5060165;28;1645;-71
2021/05/14 10:32:56;;;;;;;;;;;19.70;63.20;;;;;;5071881;28;1906;-71
2021/05/14 10:35:25;;;;;;;;;;;19.70;63.20;;;;;;5072625;28;1336;-70
2021/05/14 10:37:57;;;;;;;;;;;19.70;63.20;;;;;;5072195;28;1058;-71
2021/05/14 10:40:32;;;;;;;;;;;19.70;63.20;;;;;;5072701;28;1130;-71
2021/05/14 10:42:58;;;;;;;;;;;19.70;63.20;;;;;;5065927;28;1746;-71
2021/05/14 10:45:36;;;;;;;;;;;19.70;63.20;;;;;;5068138;28;1561;-71
2021/05/14 10:48:02;;;;;;;;;;;19.70;63.20;;;;;;5071291;28;1407;-69
2021/05/14 10:50:32;;;;;;;;;;;19.70;63.20;;;;;;5071925;28;1242;-69
2021/05/14 10:53:16;;;;;;;;;;;19.70;63.20;;;;;;5087769;28;2008;-69
2021/05/14 10:55:41;;;;;;;;;;;19.70;63.20;;;;;;5071790;28;1275;-69
2021/05/14 10:58:07;;;;;;;;;;;19.70;63.20;;;;;;5087858;28;1158;-70
2021/05/14 11:00:36;;;;;;;;;;;19.70;63.20;;;;;;5082002;28;847;-70
2021/05/14 11:03:11;;;;;;;;;;;19.70;63.20;;;;;;5072321;28;1120;-68
2021/05/14 11:05:38;;;;;;;;;;;19.70;63.20;;;;;;5071125;28;1198;-69
2021/05/14 11:08:04;;;;;;;;;;;19.70;63.20;;;;;;5071855;28;1256;-68
2021/05/14 11:10:30;;;;;;;;;;;19.70;63.20;;;;;;5071203;28;1169;-67
2021/05/14 11:12:56;;;;;;;;;;;19.70;63.20;;;;;;5072882;28;1965;-67
2021/05/14 11:15:21;;;;;;;;;;;19.70;63.20;;;;;;5055606;28;1304;-69
2021/05/14 11:18:05;;;;;;;;;;;19.70;63.20;;;;;;5071898;28;1058;-67
2021/05/14 11:20:42;;;;;;;;;;;19.70;63.20;;;;;;5067523;28;1145;-67
2021/05/14 11:23:26;;;;;;;;;;;19.70;63.20;;;;;;5069259;28;1888;-67
2021/05/14 11:25:52;;;;;;;;;;;19.70;63.20;;;;;;5059334;28;1260;-67
2021/05/14 11:28:17;;;;;;;;;;;19.70;63.20;;;;;;5054362;28;1103;-69
2021/05/14 11:30:52;;;;;;;;;;;19.70;63.20;;;;;;5069834;28;1075;-68
2021/05/14 11:33:24;;;;;;;;;;;19.70;63.20;;;;;;5068218;28;1910;-69
2021/05/14 11:35:50;;;;;;;;;;;19.70;63.20;;;;;;5071550;28;1193;-70
2021/05/14 11:38:15;;;;;;;;;;;19.70;63.20;;;;;;5069155;28;930;-69
2021/05/14 11:40:43;;;;;;;;;;;19.70;63.20;;;;;;5071857;28;1134;-70
2021/05/14 11:43:12;;;;;;;;;;;19.70;63.20;;;;;;5067927;28;942;-69
2021/05/14 11:45:41;;;;;;;;;;;19.70;63.20;;;;;;5060297;28;1310;-69
2021/05/14 11:48:21;;;;;;;;;;;19.70;63.20;;;;;;5070247;28;1178;-70
2021/05/14 11:50:47;;;;;;;;;;;19.70;63.20;;;;;;5087528;28;1129;-71
2021/05/14 11:53:13;;;;;;;;;;;19.70;63.20;;;;;;5072491;28;1959;-70
2021/05/14 11:55:40;;;;;;;;;;;19.70;64.00;;;;;;5087461;28;1192;-70
2021/05/14 11:58:05;;;;;;;;;;;19.70;63.20;;;;;;5072270;28;1225;-70
2021/05/14 12:00:32;;;;;;;;;;;19.70;63.20;;;;;;5072234;28;1066;-69
2021/05/14 12:03:01;;;;;;;;;;;19.70;63.20;;;;;;5072410;28;1106;-70
2021/05/14 12:05:28;;;;;;;;;;;19.70;63.20;;;;;;5098913;22;2160;-65
2021/05/14 12:07:54;;;;;;;;;;;19.70;63.20;;;;;;5087122;28;1437;-63
2021/05/14 12:10:19;;;;;;;;;;;19.70;63.20;;;;;;5114302;27;1117;-64
2021/05/14 12:12:45;;;;;;;;;;;19.70;63.20;;;;;;5094382;28;1953;-64
2021/05/14 12:15:14;;;;;;;;;;;19.70;63.20;;;;;;5115142;28;1303;-64
2021/05/14 12:17:39;;;;;;;;;;;19.70;63.20;;;;;;5091504;28;1134;-64
2021/05/14 12:20:12;;;;;;;;;;;19.70;63.20;;;;;;5070953;28;1147;-64
2021/05/14 12:22:56;;;;;;;;;;;19.70;63.20;;;;;;5091899;28;1110;-65
2021/05/14 12:25:22;;;;;;;;;;;19.70;63.20;;;;;;5084346;28;1473;-63
2021/05/14 12:27:47;;;;;;;;;;;19.70;63.30;;;;;;5076043;28;1207;-65
2021/05/14 12:30:15;;;;;;;;;;;19.70;63.20;;;;;;5091302;28;1134;-65
2021/05/14 12:32:41;;;;;;;;;;;19.70;63.20;;;;;;5082681;28;1897;-64
2021/05/14 12:35:06;;;;;;;;;;;19.70;63.20;;;;;;5072583;28;1356;-64
2021/05/14 12:37:32;;;;;;;;;;;19.70;63.30;;;;;;5092007;28;1054;-64
2021/05/14 12:39:57;;;;;;;;;;;19.70;63.20;;;;;;5090842;28;903;-67
2021/05/14 12:42:29;;;;;;;;;;;19.70;63.30;;;;;;5089540;28;977;-67
2021/05/14 12:44:55;;;;;;;;;;;19.70;63.30;;;;;;5072605;28;1281;-65
2021/05/14 12:47:23;;;;;;;;;;;19.70;63.20;;;;;;5090293;28;1059;-63
2021/05/14 12:49:50;;;;;;;;;;;19.70;63.30;;;;;;5072856;28;1186;-63
2021/05/14 12:52:28;;;;;;;;;;;19.70;63.30;;;;;;5091055;28;1963;-63
2021/05/14 12:54:54;;;;;;;;;;;19.70;63.30;;;;;;5072402;28;1173;-65
2021/05/14 12:57:26;;;;;;;;;;;19.70;63.30;;;;;;5072503;28;1399;-64
2021/05/14 12:59:51;;;;;;;;;;;19.70;63.30;;;;;;5092006;28;1106;-64
2021/05/14 13:02:20;;;;;;;;;;;19.70;63.30;;;;;;5076538;28;1162;-64
2021/05/14 13:04:53;;;;;;;;;;;19.70;63.30;;;;;;5077643;28;1357;-65
2021/05/14 13:07:19;;;;;;;;;;;19.70;63.30;;;;;;5095780;28;1213;-65
2021/05/14 13:09:48;;;;;;;;;;;19.70;63.30;;;;;;5094618;28;1067;-67
2021/05/14 13:12:13;;;;;;;;;;;19.70;63.30;;;;;;5065430;28;2025;-67
2021/05/14 13:14:39;;;;;;;;;;;19.70;63.30;;;;;;5084144;28;2234;-65
2021/05/14 13:17:04;;;;;;;;;;;19.70;63.40;;;;;;5094166;28;924;-67
2021/05/14 13:19:30;;;;;;;;;;;19.70;63.40;;;;;;5094107;28;1137;-68
2021/05/14 13:21:55;;;;;;;;;;;19.70;63.30;;;;;;5090676;28;1073;-66
2021/05/14 13:24:21;;;;;;;;;;;19.70;63.30;;;;;;5094416;28;1336;-67
2021/05/14 13:26:46;;;;;;;;;;;19.70;63.30;;;;;;5093179;28;936;-66
2021/05/14 13:29:11;;;;;;;;;;;19.70;63.30;;;;;;5092765;28;1062;-66
2021/05/14 13:31:37;;;;;;;;;;;19.70;63.30;;;;;;5087215;28;1131;-66
2021/05/14 13:34:02;;;;;;;;;;;19.70;63.30;;;;;;5094186;28;1964;-67
2021/05/14 13:36:28;;;;;;;;;;;19.70;63.40;;;;;;5093010;28;1114;-66
2021/05/14 13:38:56;;;;;;;;;;;19.70;63.30;;;;;;5094100;28;1075;-64
2021/05/14 13:41:22;;;;;;;;;;;19.70;63.40;;;;;;5094586;28;984;-66
2021/05/14 13:43:47;;;;;;;;;;;19.70;63.30;;;;;;5091116;28;1935;-67
2021/05/14 13:46:13;;;;;;;;;;;19.70;63.40;;;;;;5082540;28;2089;-66
2021/05/14 13:48:38;;;;;;;;;;;19.70;63.30;;;;;;5094233;28;1644;-67
2021/05/14 13:51:04;;;;;;;;;;;19.70;63.30;;;;;;5094438;28;1204;-66
2021/05/14 13:53:29;;;;;;;;;;;19.70;63.30;;;;;;5093366;28;2029;-66
2021/05/14 13:55:54;;;;;;;;;;;19.70;63.30;;;;;;5092024;28;1231;-65
2021/05/14 13:58:20;;;;;;;;;;;19.70;63.30;;;;;;5093326;28;1094;-67
2021/05/14 14:00:45;;;;;;;;;;;19.70;63.40;;;;;;5094090;28;1117;-67
2021/05/14 14:03:11;;;;;;;;;;;19.70;63.30;;;;;;5093930;28;1126;-67
2021/05/14 14:05:38;;;;;;;;;;;19.70;63.40;;;;;;5092885;28;1809;-67
2021/05/14 14:08:04;;;;;;;;;;;19.70;63.40;;;;;;5093787;28;1078;-67
2021/05/14 14:10:29;;;;;;;;;;;19.70;63.40;;;;;;5075526;28;1154;-66
2021/05/14 14:12:55;;;;;;;;;;;19.70;63.40;;;;;;5075214;28;1906;-67
2021/05/14 14:15:20;;;;;;;;;;;19.70;63.40;;;;;;5062865;28;2510;-66
2021/05/14 14:17:46;;;;;;;;;;;19.70;63.40;;;;;;5087996;28;2013;-67
2021/05/14 14:20:11;;;;;;;;;;;19.70;63.40;;;;;;5084894;28;2014;-67
2021/05/14 14:22:37;;;;;;;;;;;19.70;63.40;;;;;;5092310;28;2014;-67
2021/05/14 14:25:03;;;;;;;;;;;19.70;63.40;;;;;;5090356;28;1241;-67
2021/05/14 14:27:31;;;;;;;;;;;19.70;63.40;;;;;;5073393;28;1329;-67
2021/05/14 14:29:57;;;;;;;;;;;19.70;63.40;;;;;;5091073;28;1309;-67
2021/05/14 14:32:22;;;;;;;;;;;19.70;63.40;;;;;;5091944;28;2102;-67